Maxwell Air Force Base Montgomery US
ICAO: KMXF
IATA: MXF
Category: Medium
Scheduled Services: No

Elevation: 171 ft
TransAlt. 18000 ft.

Airport Communications:
MONTGOMERY APP/DEP:121.2
ATIS:134.7
GND:127.15
PMSV METRO:34.23
42 ABW COMD POST:23.46
AFRC 908AW COMD POST:39.69
PTD:122.85
TWR:118.15

KMXF Zoom In..

Runways:

(A) RW 15 length 8013 ft width 150 ft
ILS 109.30 / hdg 149

(B) RW 33 length 8013 ft width 150 ft
---- / hdg 329

Location; KMXF
Day. 23 / Time. 21.56 Zulu
* Altimeter: 30.09
* Temperature: 14° c. 57.2°f.
* Wind from: 270° Speed 05 kn.
Dewpoint: 01° c.
Visibility: 10 Statute Miles.
Clouds: Clear (automated report).

KMXF 232156Z 27005KT 10SM CLR 14/01 A3009 RMK AO2A SLP192 T01830037 $


Wind From 270°
Speed 05 kn.

YouTube Music Video
 
jpsmedia.com for Web Design  worldairports.se 2018   terms of use